Time;durP1;ratioP1;P1;durP2;ratioP2;P2;SDS_P1;SDS_P2;PMS_P1;PMS_P2;Temp;Humidity;BMP_temperature;BMP_pressure;BME280_temperature;BME280_humidity;BME280_pressure;Samples;Min_cycle;Max_cycle;Signal;HPM_P1;HPM_P2
2023/10/31 00:01:03;;;;;;;9.20;8.40;;;11.30;99.90;;;;;;5052473;28;20659;-72
2023/10/31 00:03:29;;;;;;;8.17;7.47;;;11.30;99.90;;;;;;5052521;28;20198;-71
2023/10/31 00:05:54;;;;;;;6.67;6.17;;;11.30;99.90;;;;;;5052355;28;20211;-72
2023/10/31 00:08:20;;;;;;;7.53;6.93;;;11.30;99.90;;;;;;5052441;28;20175;-71
2023/10/31 00:10:46;;;;;;;6.60;6.00;;;11.30;99.90;;;;;;5052864;28;20179;-73
2023/10/31 00:13:12;;;;;;;7.27;6.67;;;11.30;99.90;;;;;;5051755;28;20174;-71
2023/10/31 00:15:37;;;;;;;6.53;6.03;;;11.30;99.90;;;;;;5052291;28;20232;-72
2023/10/31 00:18:03;;;;;;;6.90;6.27;;;11.40;99.90;;;;;;5052543;28;20171;-72
2023/10/31 00:20:29;;;;;;;7.53;6.83;;;11.40;99.90;;;;;;5052213;28;20210;-73
2023/10/31 00:22:55;;;;;;;8.90;7.57;;;11.30;99.90;;;;;;5052210;28;20234;-71
2023/10/31 00:25:20;;;;;;;8.77;8.03;;;11.40;99.90;;;;;;5051827;28;20221;-72
2023/10/31 00:27:46;;;;;;;8.30;7.50;;;11.40;99.90;;;;;;5051776;28;20202;-71
2023/10/31 00:30:12;;;;;;;10.37;8.43;;;11.40;99.90;;;;;;5051855;28;20167;-72
2023/10/31 00:32:37;;;;;;;9.10;8.20;;;11.40;99.90;;;;;;5052225;28;20171;-71
2023/10/31 00:35:03;;;;;;;8.97;8.17;;;11.40;99.90;;;;;;5051393;28;20272;-72
2023/10/31 00:37:29;;;;;;;7.67;6.83;;;11.40;99.90;;;;;;5052108;28;20173;-73
2023/10/31 00:39:54;;;;;;;8.47;7.70;;;11.40;99.90;;;;;;5051702;28;20186;-70
2023/10/31 00:42:20;;;;;;;10.63;7.90;;;11.50;99.90;;;;;;5051813;28;20175;-72
2023/10/31 00:44:46;;;;;;;8.10;7.40;;;11.40;99.90;;;;;;5051476;28;20220;-71
2023/10/31 00:47:11;;;;;;;7.53;6.77;;;11.40;99.90;;;;;;5051626;28;20175;-72
2023/10/31 00:49:37;;;;;;;6.70;6.17;;;11.50;99.90;;;;;;5051838;28;20225;-72
2023/10/31 00:52:03;;;;;;;9.10;6.13;;;11.40;99.90;;;;;;5051763;28;20529;-70
2023/10/31 00:54:28;;;;;;;5.87;5.37;;;11.40;99.90;;;;;;5051298;28;20202;-72
2023/10/31 00:56:54;;;;;;;8.47;5.60;;;11.40;99.90;;;;;;5051666;28;20182;-71
2023/10/31 00:59:20;;;;;;;5.60;5.17;;;11.30;99.90;;;;;;5051422;28;20217;-71
2023/10/31 01:01:45;;;;;;;5.40;4.90;;;11.30;99.90;;;;;;5051567;28;20175;-71
2023/10/31 01:04:11;;;;;;;7.23;5.50;;;11.30;99.90;;;;;;5050998;28;20186;-71
2023/10/31 01:06:43;;;;;;;5.87;5.33;;;11.30;99.90;;;;;;5050924;28;20186;-70
2023/10/31 01:09:10;;;;;;;8.93;5.60;;;11.30;99.90;;;;;;5050937;28;20189;-71
2023/10/31 01:11:36;;;;;;;5.80;4.97;;;11.30;99.90;;;;;;5051430;28;20174;-71
2023/10/31 01:14:01;;;;;;;5.60;5.20;;;11.30;99.90;;;;;;5051254;28;20214;-72
2023/10/31 01:16:27;;;;;;;5.17;4.83;;;11.30;99.90;;;;;;5050733;28;20174;-71
2023/10/31 01:18:53;;;;;;;6.47;5.50;;;11.30;99.90;;;;;;5051397;28;20574;-71
2023/10/31 01:21:18;;;;;;;8.10;4.97;;;11.30;99.90;;;;;;5051286;28;20171;-71
2023/10/31 01:23:44;;;;;;;5.53;5.07;;;11.20;99.90;;;;;;5051143;28;20576;-71
2023/10/31 01:26:09;;;;;;;8.40;5.00;;;11.20;99.90;;;;;;5050701;28;20202;-72
2023/10/31 01:28:35;;;;;;;5.60;4.50;;;11.10;99.90;;;;;;5051736;28;20373;-71
2023/10/31 01:31:01;;;;;;;6.17;4.97;;;11.10;99.90;;;;;;5050681;28;20648;-70
2023/10/31 01:33:26;;;;;;;5.87;4.70;;;11.00;99.90;;;;;;5050770;28;20178;-70
2023/10/31 01:35:52;;;;;;;5.50;5.00;;;11.00;99.90;;;;;;5050624;28;20224;-71
2023/10/31 01:38:17;;;;;;;5.43;4.90;;;11.00;99.90;;;;;;5050940;28;20170;-71
2023/10/31 01:40:43;;;;;;;5.53;4.90;;;11.00;99.90;;;;;;5033238;28;20181;-71
2023/10/31 01:43:08;;;;;;;5.37;4.93;;;11.10;99.90;;;;;;5050856;28;20167;-70
2023/10/31 01:45:34;;;;;;;5.00;4.70;;;11.10;99.90;;;;;;5050798;28;20614;-71
2023/10/31 01:48:00;;;;;;;5.50;5.10;;;11.10;99.90;;;;;;5050998;28;20658;-71
2023/10/31 01:50:26;;;;;;;6.03;5.43;;;11.10;99.90;;;;;;5050689;28;20174;-71
2023/10/31 01:52:52;;;;;;;7.30;5.07;;;11.10;99.90;;;;;;5050978;28;20174;-71
2023/10/31 01:55:18;;;;;;;7.50;5.23;;;11.20;99.90;;;;;;5050222;28;20641;-71
2023/10/31 01:57:47;;;;;;;6.63;4.50;;;11.20;99.90;;;;;;5050816;28;20175;-72
2023/10/31 02:00:13;;;;;;;5.50;5.10;;;11.20;99.90;;;;;;5050769;28;20167;-71
2023/10/31 02:02:43;;;;;;;5.30;4.87;;;11.10;99.90;;;;;;5050940;28;20540;-71
2023/10/31 02:05:10;;;;;;;5.33;4.87;;;11.20;99.90;;;;;;5050062;28;20210;-71
2023/10/31 02:07:35;;;;;;;9.03;5.80;;;11.20;99.90;;;;;;5050934;28;20560;-71
2023/10/31 02:10:01;;;;;;;8.07;5.63;;;11.10;99.90;;;;;;5050436;28;20175;-71
2023/10/31 02:12:33;;;;;;;6.67;5.57;;;11.10;99.90;;;;;;5050905;28;20175;-71
2023/10/31 02:14:59;;;;;;;5.87;5.37;;;11.20;99.90;;;;;;5050357;28;20217;-71
2023/10/31 02:17:24;;;;;;;5.93;5.43;;;11.10;99.90;;;;;;5053022;28;20540;-71
2023/10/31 02:19:50;;;;;;;7.07;5.47;;;11.10;99.90;;;;;;5054541;28;20175;-72
2023/10/31 02:22:15;;;;;;;6.27;5.57;;;11.10;99.90;;;;;;5054298;28;20198;-70
2023/10/31 02:24:41;;;;;;;7.00;5.67;;;11.00;99.90;;;;;;5054677;28;20198;-70
2023/10/31 02:27:06;;;;;;;7.67;6.37;;;10.90;99.90;;;;;;5054343;28;20186;-71
2023/10/31 02:29:32;;;;;;;7.70;6.00;;;10.90;99.90;;;;;;5054541;28;20174;-71
2023/10/31 02:31:58;;;;;;;7.90;6.10;;;10.80;99.90;;;;;;5054032;28;20541;-71
2023/10/31 02:34:23;;;;;;;6.77;5.80;;;10.70;99.90;;;;;;5053593;28;20215;-71
2023/10/31 02:36:49;;;;;;;8.33;5.57;;;10.70;99.90;;;;;;5054188;28;20167;-71
2023/10/31 02:39:14;;;;;;;8.03;5.10;;;10.70;99.90;;;;;;5053705;28;20179;-70
2023/10/31 02:41:40;;;;;;;12.10;5.20;;;10.60;99.90;;;;;;5053941;28;20182;-72
2023/10/31 02:44:05;;;;;;;5.80;5.40;;;10.60;99.90;;;;;;5054069;28;20244;-72
2023/10/31 02:46:31;;;;;;;7.00;5.33;;;10.50;99.90;;;;;;5053679;28;20175;-71
2023/10/31 02:48:57;;;;;;;5.47;5.03;;;10.50;99.90;;;;;;5053918;28;20187;-71
2023/10/31 02:51:22;;;;;;;6.07;5.40;;;10.40;99.90;;;;;;5053648;28;20186;-71
2023/10/31 02:53:48;;;;;;;5.33;4.93;;;10.40;99.90;;;;;;5053288;28;20575;-71
2023/10/31 02:56:13;;;;;;;6.37;4.87;;;10.30;99.90;;;;;;5053436;28;20276;-71
2023/10/31 02:58:39;;;;;;;5.37;4.87;;;10.30;99.90;;;;;;5053931;28;20180;-71
2023/10/31 03:01:04;;;;;;;6.40;5.07;;;10.20;99.90;;;;;;5053362;28;20207;-71
2023/10/31 03:03:30;;;;;;;5.70;5.20;;;10.20;99.90;;;;;;5053073;28;20563;-72
2023/10/31 03:05:56;;;;;;;6.37;5.40;;;10.20;99.90;;;;;;5053495;28;20534;-71
2023/10/31 03:08:21;;;;;;;5.57;5.17;;;10.20;99.90;;;;;;5053414;28;20175;-71
2023/10/31 03:10:50;;;;;;;9.97;5.90;;;10.20;99.90;;;;;;5053910;28;20249;-71
2023/10/31 03:13:17;;;;;;;5.63;5.23;;;10.20;99.90;;;;;;5053474;28;20195;-71
2023/10/31 03:15:43;;;;;;;6.03;5.43;;;10.20;99.90;;;;;;5053641;28;20538;-70
2023/10/31 03:18:09;;;;;;;7.13;6.53;;;10.20;99.90;;;;;;5053525;28;20171;-72
2023/10/31 03:20:35;;;;;;;5.63;5.13;;;10.20;99.90;;;;;;5053723;28;20662;-71
2023/10/31 03:23:00;;;;;;;5.77;5.27;;;10.30;99.90;;;;;;5053864;28;20175;-71
2023/10/31 03:25:26;;;;;;;5.77;5.13;;;10.30;99.90;;;;;;5053094;28;20232;-72
2023/10/31 03:27:51;;;;;;;4.73;4.33;;;10.40;99.90;;;;;;5053319;28;20525;-71
2023/10/31 03:30:17;;;;;;;6.03;4.67;;;10.50;99.90;;;;;;5053625;28;20305;-71
2023/10/31 03:32:42;;;;;;;6.40;4.73;;;10.50;99.90;;;;;;5053714;28;20175;-70
2023/10/31 03:35:08;;;;;;;5.27;4.50;;;10.50;99.90;;;;;;5053028;28;20202;-72
2023/10/31 03:37:34;;;;;;;4.57;4.13;;;10.60;99.90;;;;;;5053719;28;20258;-71
2023/10/31 03:39:59;;;;;;;5.83;4.70;;;10.70;99.90;;;;;;5053356;28;20574;-72
2023/10/31 03:42:25;;;;;;;4.27;3.97;;;10.70;99.90;;;;;;5053363;28;20195;-70
2023/10/31 03:44:50;;;;;;;5.67;4.50;;;10.80;99.90;;;;;;5053161;28;20209;-70
2023/10/31 03:47:16;;;;;;;4.90;4.50;;;10.80;99.90;;;;;;5053251;28;20213;-71
2023/10/31 03:49:41;;;;;;;6.07;4.00;;;10.80;99.90;;;;;;5053322;28;20186;-71
2023/10/31 03:52:07;;;;;;;6.00;4.03;;;10.80;99.90;;;;;;5053005;28;20175;-72
2023/10/31 03:54:33;;;;;;;5.07;4.10;;;10.80;99.90;;;;;;5053064;28;20210;-71
2023/10/31 03:56:58;;;;;;;4.23;3.93;;;10.90;99.90;;;;;;5052784;28;20289;-71
2023/10/31 03:59:24;;;;;;;4.67;4.37;;;11.00;99.90;;;;;;5052880;28;20194;-72
2023/10/31 04:01:49;;;;;;;4.20;3.90;;;10.90;99.90;;;;;;5053076;28;20177;-71
2023/10/31 04:04:15;;;;;;;5.00;4.33;;;11.00;99.90;;;;;;5053041;28;20249;-72
2023/10/31 04:06:42;;;;;;;4.40;4.10;;;11.00;99.90;;;;;;5053117;28;20286;-71
2023/10/31 04:09:07;;;;;;;5.30;4.57;;;11.10;99.90;;;;;;5052558;28;20171;-70
2023/10/31 04:11:33;;;;;;;5.40;4.07;;;11.10;99.90;;;;;;5052386;28;20186;-70
2023/10/31 04:13:58;;;;;;;4.27;3.97;;;11.10;99.90;;;;;;5052605;28;20579;-71
2023/10/31 04:16:24;;;;;;;5.73;4.47;;;11.10;99.90;;;;;;5052679;28;20170;-70
2023/10/31 04:18:50;;;;;;;4.50;4.20;;;11.20;99.90;;;;;;5052670;28;20652;-72
2023/10/31 04:21:15;;;;;;;5.50;5.10;;;11.20;99.90;;;;;;5052517;28;20632;-71
2023/10/31 04:23:41;;;;;;;5.00;4.50;;;11.20;99.90;;;;;;5052390;28;20194;-70
2023/10/31 04:26:06;;;;;;;5.10;4.70;;;11.20;99.90;;;;;;5052202;28;20199;-71
2023/10/31 04:28:32;;;;;;;4.70;4.40;;;11.20;99.90;;;;;;5052517;28;20182;-71
2023/10/31 04:30:57;;;;;;;4.63;4.23;;;11.30;99.90;;;;;;5052718;28;20296;-70
2023/10/31 04:33:23;;;;;;;4.80;4.50;;;11.30;99.90;;;;;;5052230;28;20175;-70
2023/10/31 04:35:48;;;;;;;5.37;4.97;;;11.30;99.90;;;;;;5052079;28;20179;-70
2023/10/31 04:38:14;;;;;;;5.60;5.03;;;11.20;99.90;;;;;;5052374;28;20882;-71
2023/10/31 04:40:40;;;;;;;5.50;5.00;;;11.20;99.90;;;;;;5051763;28;20182;-71
2023/10/31 04:43:05;;;;;;;5.07;4.67;;;11.30;99.90;;;;;;5052181;28;20515;-71
2023/10/31 04:45:31;;;;;;;4.93;4.63;;;11.30;99.90;;;;;;5051582;28;20224;-71
2023/10/31 04:47:56;;;;;;;4.70;4.30;;;11.30;99.90;;;;;;5052209;28;20175;-71
2023/10/31 04:50:22;;;;;;;5.30;4.80;;;11.30;99.90;;;;;;5051954;28;20182;-71
2023/10/31 04:52:47;;;;;;;5.33;4.87;;;11.30;99.90;;;;;;5052003;28;20189;-71
2023/10/31 04:55:13;;;;;;;4.83;4.53;;;11.30;99.90;;;;;;5051184;28;20206;-71
2023/10/31 04:57:39;;;;;;;4.50;4.10;;;11.30;99.90;;;;;;5052116;28;20257;-71
2023/10/31 05:00:07;;;;;;;5.17;4.77;;;11.30;99.90;;;;;;5051665;28;20166;-71
2023/10/31 05:02:33;;;;;;;5.17;4.60;;;11.40;99.90;;;;;;5052116;28;20171;-70
2023/10/31 05:04:59;;;;;;;5.00;4.60;;;11.40;99.90;;;;;;5051524;28;20194;-70
2023/10/31 05:07:24;;;;;;;5.27;4.87;;;11.30;99.90;;;;;;5051764;28;20202;-71
2023/10/31 05:09:50;;;;;;;5.87;5.13;;;11.40;99.90;;;;;;5051417;28;20659;-71
2023/10/31 05:12:16;;;;;;;6.30;4.63;;;11.40;99.90;;;;;;5051519;28;20192;-72
2023/10/31 05:14:41;;;;;;;5.60;5.10;;;11.40;99.90;;;;;;5051468;28;20561;-71
2023/10/31 05:17:07;;;;;;;4.90;4.60;;;11.30;99.90;;;;;;5051605;28;20202;-71
2023/10/31 05:19:32;;;;;;;4.83;4.43;;;11.40;99.90;;;;;;5051325;28;20170;-71
2023/10/31 05:21:58;;;;;;;5.20;4.80;;;11.40;99.90;;;;;;5051553;28;20166;-71
2023/10/31 05:24:24;;;;;;;5.57;4.80;;;11.30;99.90;;;;;;5051165;28;20198;-71
2023/10/31 05:26:49;;;;;;;7.03;5.33;;;11.30;99.90;;;;;;5051227;28;20198;-72
2023/10/31 05:29:15;;;;;;;5.00;4.60;;;11.20;99.90;;;;;;5051276;28;20538;-70
2023/10/31 05:31:41;;;;;;;5.13;4.67;;;11.20;99.90;;;;;;5051647;28;20186;-71
2023/10/31 05:34:07;;;;;;;5.30;4.90;;;11.10;99.90;;;;;;5051015;28;20406;-71
2023/10/31 05:36:33;;;;;;;4.50;4.20;;;11.20;99.90;;;;;;5051247;28;20171;-71
2023/10/31 05:38:58;;;;;;;5.33;4.83;;;11.20;99.90;;;;;;5051253;28;20185;-72
2023/10/31 05:41:24;;;;;;;4.70;4.37;;;11.20;99.90;;;;;;5051003;28;20174;-70
2023/10/31 05:43:49;;;;;;;4.57;4.27;;;11.20;99.90;;;;;;5051357;28;20203;-71
2023/10/31 05:46:15;;;;;;;5.00;4.60;;;11.20;99.90;;;;;;5051117;28;20182;-72
2023/10/31 05:48:43;;;;;;;4.50;4.20;;;11.20;99.90;;;;;;5051370;28;20179;-71
2023/10/31 05:51:16;;;;;;;5.77;5.23;;;11.20;99.90;;;;;;5051810;28;20204;-71
2023/10/31 05:53:45;;;;;;;5.10;4.80;;;11.20;99.90;;;;;;5055274;28;20741;-71
2023/10/31 05:56:12;;;;;;;5.70;5.10;;;11.20;99.90;;;;;;5054713;28;20171;-71
2023/10/31 05:58:39;;;;;;;6.23;5.67;;;11.20;99.90;;;;;;5055059;28;20249;-72
2023/10/31 06:01:05;;;;;;;5.80;5.30;;;11.20;99.90;;;;;;5054910;28;20167;-71
2023/10/31 06:03:31;;;;;;;5.57;5.07;;;11.20;99.90;;;;;;5054711;28;20729;-71
2023/10/31 06:05:56;;;;;;;5.10;4.70;;;11.20;99.90;;;;;;5054841;28;20185;-71
2023/10/31 06:08:24;;;;;;;5.07;4.67;;;11.20;99.90;;;;;;5054435;28;20182;-73
2023/10/31 06:10:52;;;;;;;6.07;5.57;;;11.20;99.90;;;;;;5054820;28;20185;-72
2023/10/31 06:13:18;;;;;;;5.60;5.20;;;11.20;99.90;;;;;;5054868;28;20185;-71
2023/10/31 06:15:44;;;;;;;5.80;5.40;;;11.20;99.90;;;;;;5054247;28;20214;-71
2023/10/31 06:18:09;;;;;;;5.50;5.10;;;11.20;99.90;;;;;;5054733;28;20345;-69
2023/10/31 06:20:35;;;;;;;5.97;5.47;;;11.20;99.90;;;;;;5054717;28;20267;-70
2023/10/31 06:23:03;;;;;;;6.33;5.27;;;11.20;99.90;;;;;;5054767;28;20175;-70
2023/10/31 06:25:29;;;;;;;6.17;5.70;;;11.10;99.90;;;;;;5053877;28;20198;-70
2023/10/31 06:27:55;;;;;;;5.90;5.50;;;11.20;99.90;;;;;;5054748;28;20629;-69
2023/10/31 06:30:20;;;;;;;6.70;6.00;;;11.20;99.90;;;;;;5054339;28;20175;-70
2023/10/31 06:32:46;;;;;;;5.80;5.33;;;11.20;99.90;;;;;;5054585;28;20179;-69
2023/10/31 06:35:12;;;;;;;5.80;5.40;;;11.20;99.90;;;;;;5053926;28;20211;-70
2023/10/31 06:37:37;;;;;;;5.80;5.37;;;11.20;99.90;;;;;;5054235;28;20181;-70
2023/10/31 06:40:04;;;;;;;5.73;5.33;;;11.10;99.90;;;;;;5054427;28;20175;-70
2023/10/31 06:42:30;;;;;;;7.33;6.07;;;11.00;99.90;;;;;;5054138;28;20182;-70
2023/10/31 06:44:55;;;;;;;6.27;5.67;;;11.00;99.90;;;;;;5054116;28;20244;-70
2023/10/31 06:47:21;;;;;;;5.73;5.33;;;11.00;99.90;;;;;;5033999;28;20648;-70
2023/10/31 06:49:47;;;;;;;6.67;6.00;;;11.00;99.90;;;;;;5034195;28;20195;-71
2023/10/31 06:52:12;;;;;;;6.37;5.87;;;11.00;99.90;;;;;;5037743;28;20416;-70
2023/10/31 06:54:38;;;;;;;6.30;5.87;;;11.00;99.90;;;;;;5053858;28;20207;-70
2023/10/31 06:57:04;;;;;;;6.87;6.27;;;11.00;99.90;;;;;;5054067;28;20174;-70
2023/10/31 06:59:29;;;;;;;10.30;6.37;;;11.10;99.90;;;;;;5053659;28;20170;-71
2023/10/31 07:01:55;;;;;;;7.43;6.73;;;11.00;99.90;;;;;;5053281;28;20175;-70
2023/10/31 07:04:21;;;;;;;6.70;6.00;;;11.00;99.90;;;;;;5053695;28;20194;-71
2023/10/31 07:06:46;;;;;;;7.23;6.50;;;11.00;99.90;;;;;;5053314;28;20185;-71
2023/10/31 07:09:12;;;;;;;6.37;5.77;;;11.00;99.90;;;;;;5052844;28;20183;-71
2023/10/31 07:11:37;;;;;;;7.23;6.53;;;11.00;99.90;;;;;;5053360;28;20194;-70
2023/10/31 07:14:03;;;;;;;6.97;6.33;;;11.00;99.90;;;;;;5053387;28;20233;-70
2023/10/31 07:16:29;;;;;;;6.53;5.90;;;11.00;99.90;;;;;;5052887;28;20578;-71
2023/10/31 07:18:55;;;;;;;6.53;5.97;;;10.90;99.90;;;;;;5052541;28;20175;-71
2023/10/31 07:21:20;;;;;;;7.63;6.93;;;10.90;99.90;;;;;;5052307;28;20175;-70
2023/10/31 07:23:46;;;;;;;6.67;6.03;;;10.80;99.90;;;;;;5053265;28;20205;-70
2023/10/31 07:26:12;;;;;;;7.73;7.03;;;10.80;99.90;;;;;;5052696;28;20269;-70
2023/10/31 07:28:37;;;;;;;8.60;6.50;;;10.80;99.90;;;;;;5053273;28;20175;-71
2023/10/31 07:31:04;;;;;;;6.93;6.33;;;10.80;99.90;;;;;;5053151;28;20210;-70
2023/10/31 07:33:30;;;;;;;7.03;6.43;;;10.80;99.90;;;;;;5052653;28;20277;-70
2023/10/31 07:35:55;;;;;;;7.43;6.83;;;10.80;99.90;;;;;;5053388;28;20703;-70
2023/10/31 07:38:21;;;;;;;7.43;6.83;;;10.90;99.90;;;;;;5053126;28;20174;-70
2023/10/31 07:40:48;;;;;;;8.67;6.67;;;11.00;99.90;;;;;;5053181;28;20659;-70
2023/10/31 07:43:14;;;;;;;7.60;6.90;;;11.10;99.90;;;;;;5053118;28;20723;-70
2023/10/31 07:45:39;;;;;;;8.13;6.20;;;11.20;99.90;;;;;;5052916;28;20214;-70
2023/10/31 07:48:05;;;;;;;7.23;6.60;;;11.30;99.90;;;;;;5052963;28;20555;-70
2023/10/31 07:50:31;;;;;;;6.50;6.00;;;11.50;99.90;;;;;;5053128;28;20178;-72
2023/10/31 07:52:56;;;;;;;7.10;6.40;;;11.50;99.90;;;;;;5052970;28;20742;-71
2023/10/31 07:55:22;;;;;;;6.27;5.77;;;11.50;99.90;;;;;;5052393;28;20214;-71
2023/10/31 07:57:48;;;;;;;5.77;5.37;;;11.60;99.90;;;;;;5052862;28;20551;-71
2023/10/31 08:00:13;;;;;;;7.83;6.10;;;11.70;99.90;;;;;;5053269;28;20445;-71
2023/10/31 08:02:39;;;;;;;6.63;6.03;;;11.90;99.90;;;;;;5052978;28;20174;-71
2023/10/31 08:05:06;;;;;;;6.37;5.70;;;12.10;99.90;;;;;;5052271;28;20217;-71
2023/10/31 08:07:32;;;;;;;6.30;5.70;;;12.20;99.90;;;;;;5052205;28;20187;-71
2023/10/31 08:09:57;;;;;;;7.30;5.40;;;12.30;99.90;;;;;;5051866;28;20667;-71
2023/10/31 08:12:23;;;;;;;5.70;5.20;;;12.40;99.90;;;;;;5052317;28;20186;-71
2023/10/31 08:14:49;;;;;;;6.07;5.57;;;12.40;99.90;;;;;;5051132;28;20245;-71
2023/10/31 08:17:14;;;;;;;5.50;5.10;;;12.40;99.90;;;;;;5052630;28;20258;-71
2023/10/31 08:19:40;;;;;;;5.23;4.83;;;12.40;99.90;;;;;;5051636;28;20233;-72
2023/10/31 08:22:05;;;;;;;6.93;5.20;;;12.40;99.90;;;;;;5052096;28;20171;-71
2023/10/31 08:24:31;;;;;;;5.50;5.00;;;12.40;99.90;;;;;;5052165;28;20750;-71
2023/10/31 08:26:58;;;;;;;5.20;4.80;;;12.40;99.90;;;;;;5051921;28;20187;-71
2023/10/31 08:29:23;;;;;;;6.00;5.50;;;12.40;99.90;;;;;;5052241;28;20674;-71
2023/10/31 08:31:49;;;;;;;5.30;4.53;;;12.40;99.90;;;;;;5052280;28;20183;-71
2023/10/31 08:34:14;;;;;;;7.27;4.70;;;12.40;99.90;;;;;;5051819;28;20538;-70
2023/10/31 08:36:40;;;;;;;5.50;5.00;;;12.40;99.90;;;;;;5051844;28;20209;-70
2023/10/31 08:39:05;;;;;;;4.87;4.53;;;12.50;99.90;;;;;;5051967;28;20171;-71
2023/10/31 08:41:31;;;;;;;4.67;4.27;;;12.50;99.90;;;;;;5050588;28;20643;-70
2023/10/31 08:43:58;;;;;;;4.80;4.40;;;12.50;99.90;;;;;;5051765;28;20270;-70
2023/10/31 08:46:23;;;;;;;4.63;4.33;;;12.60;99.90;;;;;;5051213;28;20187;-71
2023/10/31 08:48:49;;;;;;;5.43;4.43;;;12.60;99.90;;;;;;5051816;28;20186;-70
2023/10/31 08:51:15;;;;;;;5.73;5.10;;;12.60;99.90;;;;;;5051507;28;20564;-70
2023/10/31 08:53:41;;;;;;;5.00;4.60;;;12.60;99.90;;;;;;5051330;28;20244;-70
2023/10/31 08:56:07;;;;;;;5.10;4.60;;;12.70;99.90;;;;;;5051435;28;20198;-70
2023/10/31 08:58:33;;;;;;;4.73;4.33;;;12.70;99.90;;;;;;5051317;28;20207;-71
2023/10/31 09:00:58;;;;;;;5.10;4.60;;;12.80;99.90;;;;;;5051465;28;20513;-70
2023/10/31 09:03:24;;;;;;;5.13;4.60;;;12.80;99.90;;;;;;5051166;28;20604;-72
2023/10/31 09:05:50;;;;;;;6.33;4.70;;;12.80;99.90;;;;;;5051405;28;20214;-70
2023/10/31 09:08:15;;;;;;;5.00;4.50;;;12.90;99.90;;;;;;5051116;28;20252;-71
2023/10/31 09:10:42;;;;;;;5.20;4.80;;;12.90;99.90;;;;;;5051645;28;20193;-72
2023/10/31 09:13:09;;;;;;;5.00;4.60;;;12.80;99.90;;;;;;5051258;28;20198;-71
2023/10/31 09:15:35;;;;;;;4.70;4.20;;;13.10;99.90;;;;;;5051061;28;20213;-72
2023/10/31 09:18:02;;;;;;;3.57;3.37;;;13.60;99.90;;;;;;5051263;28;20649;-72
2023/10/31 09:20:27;;;;;;;4.47;3.57;;;14.00;99.90;;;;;;5051222;28;20341;-72
2023/10/31 09:22:53;;;;;;;3.87;3.60;;;14.40;99.90;;;;;;5051112;28;20257;-71
2023/10/31 09:25:19;;;;;;;4.43;4.07;;;14.40;99.90;;;;;;5050632;28;20271;-71
2023/10/31 09:27:44;;;;;;;4.27;3.87;;;14.30;99.90;;;;;;5051017;28;20195;-71
2023/10/31 09:30:10;;;;;;;4.23;3.80;;;14.00;99.90;;;;;;5051052;28;20266;-70
2023/10/31 09:32:36;;;;;;;3.77;3.47;;;13.80;99.90;;;;;;5050846;28;20221;-70
2023/10/31 09:35:02;;;;;;;5.17;4.43;;;13.90;99.90;;;;;;5050598;28;20199;-70
2023/10/31 09:37:27;;;;;;;3.80;3.50;;;14.10;99.90;;;;;;5050860;28;20182;-70
2023/10/31 09:39:53;;;;;;;4.83;3.57;;;14.40;99.90;;;;;;5051219;28;20171;-70
2023/10/31 09:42:19;;;;;;;3.47;3.27;;;14.80;99.90;;;;;;5051546;28;20198;-70
2023/10/31 09:44:44;;;;;;;3.87;3.57;;;15.20;99.90;;;;;;5050301;28;20229;-71
2023/10/31 09:47:10;;;;;;;4.30;3.87;;;15.60;99.90;;;;;;5050756;28;20300;-70
2023/10/31 09:49:36;;;;;;;3.80;3.43;;;15.80;99.90;;;;;;5050966;28;20262;-71
2023/10/31 09:52:03;;;;;;;3.37;3.17;;;15.80;99.90;;;;;;5050838;28;20244;-70
2023/10/31 09:54:29;;;;;;;2.90;2.70;;;15.90;99.90;;;;;;5050504;28;20660;-70
2023/10/31 09:56:55;;;;;;;3.90;3.00;;;16.20;99.90;;;;;;5050858;28;20261;-70
2023/10/31 09:59:21;;;;;;;5.73;2.93;;;16.50;99.90;;;;;;5050608;28;20644;-71
2023/10/31 10:01:46;;;;;;;3.10;2.80;;;16.80;99.90;;;;;;5050536;28;20171;-71
2023/10/31 10:04:12;;;;;;;5.53;2.63;;;17.00;99.90;;;;;;5050666;28;20297;-70
2023/10/31 10:07:02;;;;;;;2.80;2.50;;;17.30;99.90;;;;;;5050837;28;20175;-70
2023/10/31 10:09:29;;;;;;;2.90;2.47;;;17.60;99.90;;;;;;5048764;28;20170;-71
2023/10/31 10:11:56;;;;;;;4.53;2.90;;;17.90;99.90;;;;;;5050787;28;20408;-69
2023/10/31 10:14:24;;;;;;;4.47;3.00;;;18.10;99.90;;;;;;5050433;28;20683;-70
2023/10/31 10:16:50;;;;;;;3.27;2.70;;;18.40;99.90;;;;;;5050565;28;20543;-72
2023/10/31 10:19:20;;;;;;;5.83;3.10;;;18.50;99.90;;;;;;5050428;28;20178;-71
2023/10/31 10:21:59;;;;;;;2.90;2.20;;;18.60;99.90;;;;;;5050518;28;20229;-70
2023/10/31 10:24:25;;;;;;;3.03;2.60;;;18.50;99.90;;;;;;5049957;28;20276;-70
2023/10/31 10:26:51;;;;;;;2.57;2.37;;;18.60;99.90;;;;;;5050244;28;20186;-70
2023/10/31 10:29:17;;;;;;;2.57;2.37;;;18.70;99.90;;;;;;5050270;28;20631;-71
2023/10/31 10:31:44;;;;;;;2.70;2.20;;;18.60;99.90;;;;;;5050302;28;20190;-70
2023/10/31 10:34:13;;;;;;;3.03;2.83;;;18.60;99.90;;;;;;5049698;28;20333;-70
2023/10/31 10:36:39;;;;;;;3.30;2.63;;;18.30;99.90;;;;;;5050407;28;20221;-70
2023/10/31 10:39:06;;;;;;;3.67;2.67;;;17.90;99.90;;;;;;5053595;28;20175;-69
2023/10/31 10:41:35;;;;;;;2.40;2.20;;;17.60;99.90;;;;;;5053962;28;20175;-70
2023/10/31 10:44:05;;;;;;;4.20;2.63;;;17.50;99.90;;;;;;5053929;28;20195;-71
2023/10/31 10:46:36;;;;;;;2.50;2.30;;;17.50;99.90;;;;;;5053903;28;20221;-70
2023/10/31 10:49:06;;;;;;;3.80;2.80;;;17.60;99.90;;;;;;5054434;28;20199;-69
2023/10/31 10:51:58;;;;;;;2.50;2.30;;;17.60;99.90;;;;;;5035966;28;20656;-70
2023/10/31 10:54:34;;;;;;;2.80;2.60;;;17.70;99.90;;;;;;5053546;28;20217;-70
2023/10/31 10:57:42;;;;;;;2.60;2.40;;;17.90;99.90;;;;;;5053643;28;20255;-70
2023/10/31 11:00:09;;;;;;;2.80;2.60;;;17.40;99.90;;;;;;4972642;28;20185;-69
2023/10/31 11:02:36;;;;;;;3.03;2.80;;;17.20;99.90;;;;;;5041541;28;20249;-71
2023/10/31 11:05:07;;;;;;;3.03;2.20;;;17.20;99.90;;;;;;5053348;28;20285;-70
2023/10/31 11:07:33;;;;;;;3.97;2.80;;;17.30;99.90;;;;;;5053712;28;20585;-72
2023/10/31 11:10:02;;;;;;;3.17;2.97;;;17.10;99.90;;;;;;5053735;28;20207;-71
2023/10/31 11:12:29;;;;;;;2.93;2.63;;;17.00;99.90;;;;;;5053496;28;20175;-70
2023/10/31 11:14:57;;;;;;;3.33;3.03;;;16.80;99.90;;;;;;5053271;28;20211;-70
2023/10/31 11:17:27;;;;;;;3.00;2.80;;;16.70;99.90;;;;;;5053622;28;20170;-70
2023/10/31 11:19:55;;;;;;;2.70;2.50;;;16.70;99.90;;;;;;5053689;28;20182;-71
2023/10/31 11:22:21;;;;;;;3.20;3.00;;;16.50;99.90;;;;;;5053468;28;20178;-70
2023/10/31 11:24:49;;;;;;;2.90;2.70;;;16.30;99.90;;;;;;5052927;28;20310;-71
2023/10/31 11:27:16;;;;;;;2.70;2.50;;;16.00;99.90;;;;;;5053294;28;20652;-70
2023/10/31 11:29:42;;;;;;;3.10;2.40;;;15.80;99.90;;;;;;5053047;28;20179;-70
2023/10/31 11:32:11;;;;;;;2.60;2.40;;;15.70;99.90;;;;;;5053285;28;20544;-70
2023/10/31 11:34:41;;;;;;;2.53;2.40;;;15.80;99.90;;;;;;5052579;28;20294;-71
2023/10/31 11:37:23;;;;;;;2.57;2.47;;;15.90;99.90;;;;;;5053148;28;20186;-70
2023/10/31 11:40:27;;;;;;;3.80;2.80;;;16.00;99.90;;;;;;5053184;28;20282;-69
2023/10/31 11:42:56;;;;;;;2.90;2.70;;;15.80;99.90;;;;;;4972083;28;20193;-71
2023/10/31 11:45:47;;;;;;;4.73;2.77;;;15.80;99.90;;;;;;4971379;28;20203;-70
2023/10/31 11:48:12;;;;;;;3.27;2.97;;;15.80;99.90;;;;;;5025339;28;20677;-74
2023/10/31 11:50:38;;;;;;;9.13;5.60;;;15.90;99.90;;;;;;5052744;28;20258;-69
2023/10/31 11:53:14;;;;;;;3.27;2.97;;;15.90;99.90;;;;;;5052787;28;20189;-71
2023/10/31 11:55:49;;;;;;;2.90;2.60;;;15.90;99.90;;;;;;5052414;28;20202;-70
2023/10/31 11:58:17;;;;;;;3.10;2.47;;;16.10;99.90;;;;;;5052754;28;20264;-71
2023/10/31 12:00:45;;;;;;;2.70;2.50;;;16.30;99.90;;;;;;5052848;28;20219;-71
2023/10/31 12:03:10;;;;;;;2.90;2.40;;;16.40;99.90;;;;;;5052791;28;20170;-71
2023/10/31 12:05:36;;;;;;;2.50;2.30;;;16.50;99.90;;;;;;5052322;28;20186;-71
2023/10/31 12:08:01;;;;;;;3.73;2.60;;;16.50;99.90;;;;;;5052577;28;20588;-70
2023/10/31 12:10:32;;;;;;;2.83;2.33;;;16.40;99.90;;;;;;5034550;28;20175;-71
2023/10/31 12:12:58;;;;;;;5.07;2.50;;;16.30;99.90;;;;;;5052680;28;20197;-70
2023/10/31 12:15:25;;;;;;;2.60;2.40;;;16.20;99.90;;;;;;5052004;28;20282;-70
2023/10/31 12:17:50;;;;;;;3.80;2.70;;;16.20;99.90;;;;;;5052355;28;20228;-69
2023/10/31 12:20:16;;;;;;;3.33;2.87;;;16.20;99.90;;;;;;5051475;28;20183;-70
2023/10/31 12:22:43;;;;;;;3.00;2.70;;;16.00;99.90;;;;;;5051558;28;20183;-70
2023/10/31 12:25:10;;;;;;;3.67;3.20;;;16.10;99.90;;;;;;5051861;28;20221;-70
2023/10/31 12:28:01;;;;;;;3.03;2.80;;;15.90;99.90;;;;;;5052022;28;20651;-72
2023/10/31 12:30:27;;;;;;;5.20;3.07;;;15.80;99.90;;;;;;5047521;28;20193;-70
2023/10/31 12:32:59;;;;;;;4.70;2.93;;;15.70;99.90;;;;;;5051959;28;20179;-70
2023/10/31 12:35:26;;;;;;;3.53;3.07;;;15.60;99.90;;;;;;5051241;28;20206;-71
2023/10/31 12:37:52;;;;;;;3.17;2.97;;;15.90;99.90;;;;;;5051908;28;20198;-69
2023/10/31 12:40:20;;;;;;;3.10;2.80;;;16.50;99.90;;;;;;5052173;28;20245;-70
2023/10/31 12:42:47;;;;;;;3.23;2.87;;;17.10;99.90;;;;;;5051918;28;20178;-71